Banning, California
Current Conditions -  °F | °C
As of 6:53 PM on Saturday 22 Nov 2014 (Local Time) from KPSP Reporting Station
Clear Clear  
Wind Chill: 63°   Ceiling: Unl
Heat Index: 63°   Visibility: 10mi
Dew Point: 41°   Wind: 7mph
Humidity: 45%   Direction: 30°NNE
Pressure: 29.91"   Gusts: NA
Location:  33.93°N, 116.87°W
Report Text: KPSP 230253Z 03006KT 10SM CLR 17/05 A2991 RMK AO2 SLP129 T01720050 58002
Loading
Personal Weather Stations






























Interactive Weather Map New forecast layout! Learn more

10-Day Weather Forecast

Advertisements
Track Severe Weather on mobile